Pierceton, Indiana
Current Conditions -  °F | °C
As of 11:35 AM on Thursday 30 Oct 2014 (Local Time) from KASW Reporting Station
Overcast Overcast  
Wind Chill: 46°   Ceiling: 4100
Heat Index: 46°   Visibility: 10mi
Dew Point: 36°   Wind: 3mph
Humidity: 66%   Direction: 240°WSW
Pressure: 30.15"   Gusts: NA
Location:  41.2°N, 85.71°W
Report Text: KASW 301535Z AUTO 24003KT 10SM OVC041 08/02 A3015 RMK AO2
Loading
Personal Weather Stations






























Interactive Weather Map
Tropical Storm Tracking
New forecast layout! Learn more

10-Day Weather Forecast

Advertisements
Track Severe Weather on mobile